createdAt,value
2022-11-06T00:01:17.989Z,10.70
2022-11-06T00:03:44.938Z,10.70
2022-11-06T00:06:35.540Z,10.70
2022-11-06T00:09:06.581Z,10.70
2022-11-06T00:11:33.122Z,10.70
2022-11-06T00:14:01.504Z,10.70
2022-11-06T00:16:27.962Z,10.70
2022-11-06T00:18:55.509Z,10.70
2022-11-06T00:21:28.749Z,10.60
2022-11-06T00:23:58.422Z,10.60
2022-11-06T00:26:27.308Z,10.60
2022-11-06T00:28:54.672Z,10.60
2022-11-06T00:31:31.339Z,10.60
2022-11-06T00:34:00.256Z,10.60
2022-11-06T00:36:31.761Z,10.60
2022-11-06T00:38:59.373Z,10.60
2022-11-06T00:41:26.818Z,10.60
2022-11-06T00:43:57.623Z,10.60
2022-11-06T00:46:25.448Z,10.60
2022-11-06T00:48:53.574Z,10.60
2022-11-06T00:51:25.952Z,10.60
2022-11-06T00:53:58.204Z,10.60
2022-11-06T00:56:25.561Z,10.60
2022-11-06T00:58:52.770Z,10.60
2022-11-06T01:01:26.163Z,10.60
2022-11-06T01:03:56.451Z,10.60
2022-11-06T01:06:26.759Z,10.60
2022-11-06T01:08:54.034Z,10.60
2022-11-06T01:11:29.511Z,10.60
2022-11-06T01:14:03.048Z,10.60
2022-11-06T01:16:30.491Z,10.60
2022-11-06T01:18:58.370Z,10.60
2022-11-06T01:21:31.771Z,10.60
2022-11-06T01:24:03.811Z,10.50
2022-11-06T01:26:38.233Z,10.50
2022-11-06T01:29:09.707Z,10.50
2022-11-06T01:31:36.461Z,10.60
2022-11-06T01:34:03.915Z,10.60
2022-11-06T01:36:31.218Z,10.50
2022-11-06T01:39:03.171Z,10.50
2022-11-06T01:41:44.964Z,10.50
2022-11-06T01:44:32.447Z,10.50
2022-11-06T01:47:01.308Z,10.50
2022-11-06T01:49:36.678Z,10.50
2022-11-06T01:52:08.311Z,10.50
2022-11-06T01:54:38.981Z,10.50
2022-11-06T01:57:05.762Z,10.50
2022-11-06T01:59:37.779Z,10.50
2022-11-06T02:02:04.388Z,10.50
2022-11-06T02:04:50.936Z,10.40
2022-11-06T02:07:19.581Z,10.40
2022-11-06T02:09:46.177Z,10.40
2022-11-06T02:12:27.260Z,10.40
2022-11-06T02:15:25.110Z,10.30
2022-11-06T02:18:35.946Z,10.20
2022-11-06T02:21:56.591Z,10.20
2022-11-06T02:24:34.488Z,10.20
2022-11-06T02:27:26.358Z,10.20
2022-11-06T02:30:04.686Z,10.20
2022-11-06T02:32:51.980Z,10.20
2022-11-06T02:35:46.974Z,10.20
2022-11-06T02:38:22.232Z,10.20
2022-11-06T02:40:57.156Z,10.20
2022-11-06T02:43:36.507Z,10.10
2022-11-06T02:46:13.995Z,10.20
2022-11-06T02:48:58.186Z,10.20
2022-11-06T02:51:31.100Z,10.20
2022-11-06T02:54:05.290Z,10.20
2022-11-06T02:56:38.311Z,10.20
2022-11-06T02:59:14.237Z,10.20
2022-11-06T03:01:52.716Z,10.20
2022-11-06T03:04:38.293Z,10.30
2022-11-06T03:07:32.008Z,10.30
2022-11-06T03:09:58.342Z,10.30
2022-11-06T03:12:57.569Z,10.30
2022-11-06T03:16:04.091Z,10.30
2022-11-06T03:18:46.767Z,10.40
2022-11-06T03:22:01.571Z,10.40
2022-11-06T03:25:02.491Z,10.40
2022-11-06T03:27:36.039Z,10.40
2022-11-06T03:30:15.363Z,10.40
2022-11-06T03:33:03.211Z,10.40
2022-11-06T03:35:52.091Z,10.40
2022-11-06T03:38:32.968Z,10.40
2022-11-06T03:41:13.446Z,10.40
2022-11-06T03:43:43.180Z,10.40
2022-11-06T03:46:18.661Z,10.40
2022-11-06T03:48:52.886Z,10.50
2022-11-06T03:51:29.309Z,10.50
2022-11-06T03:54:05.605Z,10.50
2022-11-06T03:56:40.978Z,10.50
2022-11-06T03:59:09.709Z,10.50
2022-11-06T04:01:44.472Z,10.50
2022-11-06T04:04:42.859Z,10.50
2022-11-06T04:07:18.910Z,10.50
2022-11-06T04:10:12.668Z,10.50
2022-11-06T04:13:01.084Z,10.50
2022-11-06T04:15:35.058Z,10.50
2022-11-06T04:18:01.196Z,10.50
2022-11-06T04:20:59.844Z,10.50
2022-11-06T04:23:43.188Z,10.50
2022-11-06T04:26:36.898Z,10.50
2022-11-06T04:29:36.857Z,10.50
2022-11-06T04:33:03.319Z,10.50
2022-11-06T04:35:53.215Z,10.50
2022-11-06T04:38:52.992Z,10.40
2022-11-06T04:42:02.174Z,10.40
2022-11-06T04:44:32.662Z,10.40
2022-11-06T04:47:05.464Z,10.50
2022-11-06T04:49:36.351Z,10.40
2022-11-06T04:52:09.096Z,10.50
2022-11-06T04:54:35.416Z,10.50
2022-11-06T04:57:02.964Z,10.40
2022-11-06T04:59:35.093Z,10.40
2022-11-06T05:02:01.554Z,10.40
2022-11-06T05:04:27.945Z,10.40
2022-11-06T05:06:54.056Z,10.40
2022-11-06T05:09:20.183Z,10.40
2022-11-06T05:11:46.544Z,10.40
2022-11-06T05:14:12.744Z,10.40
2022-11-06T05:16:38.921Z,10.40
2022-11-06T05:19:05.097Z,10.40
2022-11-06T05:21:49.524Z,10.40
2022-11-06T05:24:15.688Z,10.40
2022-11-06T05:26:41.968Z,10.40
2022-11-06T05:29:08.187Z,10.40
2022-11-06T05:31:34.581Z,10.40
2022-11-06T05:34:00.742Z,10.40
2022-11-06T05:36:26.897Z,10.40
2022-11-06T05:38:53.012Z,10.40
2022-11-06T05:41:19.134Z,10.40
2022-11-06T05:43:45.538Z,10.30
2022-11-06T05:46:29.782Z,10.30
2022-11-06T05:48:58.011Z,10.40
2022-11-06T05:51:24.197Z,10.40
2022-11-06T05:53:50.340Z,10.40
2022-11-06T05:56:16.551Z,10.40
2022-11-06T05:58:42.694Z,10.40
2022-11-06T06:01:10.377Z,10.40
2022-11-06T06:03:36.493Z,10.40
2022-11-06T06:06:02.732Z,10.40
2022-11-06T06:08:28.892Z,10.40
2022-11-06T06:10:55.057Z,10.40
2022-11-06T06:13:21.209Z,10.40
2022-11-06T06:15:47.363Z,10.50
2022-11-06T06:18:13.890Z,10.50
2022-11-06T06:20:40.207Z,10.50
2022-11-06T06:23:09.496Z,10.60
2022-11-06T06:25:35.886Z,10.60
2022-11-06T06:28:02.118Z,10.60
2022-11-06T06:30:28.279Z,10.60
2022-11-06T06:32:54.429Z,10.70
2022-11-06T06:35:20.597Z,10.70
2022-11-06T06:37:52.633Z,10.80
2022-11-06T06:40:19.505Z,10.80
2022-11-06T06:42:45.900Z,10.80
2022-11-06T06:45:12.446Z,10.90
2022-11-06T06:47:38.716Z,10.90
2022-11-06T06:50:05.577Z,10.90
2022-11-06T06:52:31.761Z,10.90
2022-11-06T06:54:57.943Z,11.00
2022-11-06T06:57:24.061Z,11.00
2022-11-06T06:59:50.298Z,11.00
2022-11-06T07:02:16.607Z,11.00
2022-11-06T07:04:42.835Z,11.10
2022-11-06T07:07:08.999Z,11.10
2022-11-06T07:09:35.169Z,11.10
2022-11-06T07:12:01.350Z,11.10
2022-11-06T07:14:27.499Z,11.20
2022-11-06T07:16:54.143Z,11.20
2022-11-06T07:19:21.033Z,11.20
2022-11-06T07:21:51.893Z,11.30
2022-11-06T07:24:18.569Z,11.30
2022-11-06T07:26:44.778Z,11.30
2022-11-06T07:29:11.101Z,11.40
2022-11-06T07:31:37.251Z,11.40
2022-11-06T07:34:03.661Z,11.40
2022-11-06T07:36:31.992Z,11.40
2022-11-06T07:38:58.222Z,11.50
2022-11-06T07:41:24.425Z,11.50
2022-11-06T07:43:50.572Z,11.50
2022-11-06T07:46:16.717Z,11.60
2022-11-06T07:48:42.974Z,11.60
2022-11-06T07:51:11.135Z,11.60
2022-11-06T07:53:38.158Z,11.60
2022-11-06T07:56:05.503Z,11.70
2022-11-06T07:58:33.343Z,11.70
2022-11-06T08:00:59.636Z,11.70
2022-11-06T08:03:29.072Z,11.70
2022-11-06T08:05:56.504Z,11.80
2022-11-06T08:08:22.779Z,11.80
2022-11-06T08:10:51.097Z,11.80
2022-11-06T08:13:17.869Z,11.90
2022-11-06T08:15:44.142Z,11.90
2022-11-06T08:18:11.882Z,11.90
2022-11-06T08:20:39.750Z,11.90
2022-11-06T08:23:10.409Z,12.00
2022-11-06T08:25:37.236Z,12.00
2022-11-06T08:28:03.598Z,12.00
2022-11-06T08:30:31.035Z,12.10
2022-11-06T08:33:07.304Z,12.10
2022-11-06T08:35:34.454Z,12.10
2022-11-06T08:38:00.593Z,12.10
2022-11-06T08:40:30.828Z,12.10
2022-11-06T08:43:04.229Z,12.10
2022-11-06T08:45:30.450Z,12.10
2022-11-06T08:48:02.791Z,12.20
2022-11-06T08:50:31.416Z,12.20
2022-11-06T08:53:00.241Z,12.20
2022-11-06T08:55:26.571Z,12.30
2022-11-06T08:57:56.313Z,12.30
2022-11-06T09:00:23.205Z,12.40
2022-11-06T09:02:49.716Z,12.40
2022-11-06T09:05:16.159Z,12.50
2022-11-06T09:07:42.318Z,12.50
2022-11-06T09:10:08.797Z,12.60
2022-11-06T09:12:34.992Z,12.60
2022-11-06T09:15:01.175Z,12.70
2022-11-06T09:17:27.470Z,12.70
2022-11-06T09:19:53.612Z,12.80
2022-11-06T09:22:19.789Z,12.90
2022-11-06T09:25:02.744Z,12.90
2022-11-06T09:27:29.696Z,13.00
2022-11-06T09:29:55.827Z,13.00
2022-11-06T09:32:22.787Z,13.00
2022-11-06T09:34:49.198Z,13.10
2022-11-06T09:37:15.470Z,13.10
2022-11-06T09:39:42.401Z,13.10
2022-11-06T09:42:20.606Z,13.10
2022-11-06T09:45:21.893Z,13.20
2022-11-06T09:48:17.309Z,13.20
2022-11-06T09:51:00.901Z,13.20
2022-11-06T09:53:44.269Z,13.30
2022-11-06T09:56:13.348Z,13.30
2022-11-06T09:58:43.704Z,13.40
2022-11-06T10:01:31.947Z,13.50
2022-11-06T10:04:03.986Z,13.60
2022-11-06T10:06:32.289Z,13.60
2022-11-06T10:09:04.914Z,13.70
2022-11-06T10:11:52.532Z,13.80
2022-11-06T10:14:55.897Z,13.80
2022-11-06T10:17:55.885Z,13.90
2022-11-06T10:20:39.077Z,14.00
2022-11-06T10:23:55.276Z,14.00
2022-11-06T10:26:36.862Z,14.00
2022-11-06T10:29:48.092Z,14.10
2022-11-06T10:32:39.071Z,14.10
2022-11-06T10:35:28.125Z,14.10
2022-11-06T10:38:23.034Z,14.10
2022-11-06T10:40:51.255Z,14.20
2022-11-06T10:43:32.440Z,14.20
2022-11-06T10:46:29.037Z,14.30
2022-11-06T10:49:43.894Z,14.30
2022-11-06T10:52:37.854Z,14.40
2022-11-06T10:55:47.585Z,14.40
2022-11-06T10:58:21.929Z,14.40
2022-11-06T11:00:49.591Z,14.50
2022-11-06T11:03:56.902Z,14.50
2022-11-06T11:06:36.017Z,14.60
2022-11-06T11:09:40.909Z,14.50
2022-11-06T11:12:34.996Z,14.60
2022-11-06T11:15:25.937Z,14.60
2022-11-06T11:18:19.057Z,14.60
2022-11-06T11:21:23.922Z,14.60
2022-11-06T11:24:12.908Z,14.60
2022-11-06T11:27:12.936Z,14.70
2022-11-06T11:30:01.937Z,14.70
2022-11-06T11:32:34.848Z,14.70
2022-11-06T11:35:09.442Z,14.70
2022-11-06T11:37:35.573Z,14.70
2022-11-06T11:40:22.750Z,14.70
2022-11-06T11:42:49.282Z,14.70
2022-11-06T11:45:20.981Z,14.70
2022-11-06T11:47:50.628Z,14.70
2022-11-06T11:50:32.279Z,14.70
2022-11-06T11:53:18.125Z,14.70
2022-11-06T11:55:48.393Z,14.80
2022-11-06T11:58:21.746Z,14.80
2022-11-06T12:01:04.353Z,14.80
2022-11-06T12:03:46.286Z,14.80
2022-11-06T12:06:18.451Z,14.90
2022-11-06T12:08:54.321Z,14.90
2022-11-06T12:11:25.134Z,15.00
2022-11-06T12:14:23.865Z,15.00
2022-11-06T12:17:03.021Z,15.10
2022-11-06T12:19:57.940Z,15.10
2022-11-06T12:22:49.033Z,15.20
2022-11-06T12:25:49.959Z,15.20
2022-11-06T12:28:33.080Z,15.30
2022-11-06T12:32:01.026Z,15.30
2022-11-06T12:35:00.961Z,15.40
2022-11-06T12:38:05.299Z,15.40
2022-11-06T12:41:07.970Z,15.50
2022-11-06T12:43:56.969Z,15.50
2022-11-06T12:46:45.054Z,15.50
2022-11-06T12:49:52.975Z,15.50
2022-11-06T12:52:54.053Z,15.60
2022-11-06T12:56:07.953Z,15.70
2022-11-06T12:58:46.610Z,15.80
2022-11-06T13:01:39.225Z,15.80
2022-11-06T13:04:24.522Z,15.90
2022-11-06T13:07:40.531Z,15.90
2022-11-06T13:10:29.218Z,15.90
2022-11-06T13:13:15.304Z,16.00
2022-11-06T13:16:33.058Z,16.00
2022-11-06T13:19:17.518Z,16.00
2022-11-06T13:22:30.186Z,16.00
2022-11-06T13:25:24.115Z,16.00
2022-11-06T13:28:10.968Z,15.90
2022-11-06T13:30:39.635Z,15.90
2022-11-06T13:33:43.161Z,15.80
2022-11-06T13:36:10.253Z,15.90
2022-11-06T13:38:46.669Z,15.80
2022-11-06T13:41:27.458Z,15.80
2022-11-06T13:44:03.640Z,15.80
2022-11-06T13:46:46.604Z,15.70
2022-11-06T13:49:33.644Z,15.70
2022-11-06T13:52:09.366Z,15.60
2022-11-06T13:55:04.170Z,15.60
2022-11-06T13:58:00.036Z,15.60
2022-11-06T14:01:03.076Z,15.50
2022-11-06T14:04:06.214Z,15.50
2022-11-06T14:06:34.524Z,15.50
2022-11-06T14:09:19.076Z,15.50
2022-11-06T14:11:57.573Z,15.50
2022-11-06T14:14:27.045Z,15.50
2022-11-06T14:17:14.932Z,15.50
2022-11-06T14:20:01.945Z,15.40
2022-11-06T14:22:37.468Z,15.40
2022-11-06T14:25:28.674Z,15.30
2022-11-06T14:27:54.690Z,15.30
2022-11-06T14:30:50.285Z,15.20
2022-11-06T14:33:44.143Z,15.20
2022-11-06T14:36:33.654Z,15.10
2022-11-06T14:39:01.559Z,15.10
2022-11-06T14:41:33.617Z,15.10
2022-11-06T14:44:05.625Z,15.00
2022-11-06T14:46:32.855Z,15.00
2022-11-06T14:49:37.022Z,14.90
2022-11-06T14:52:13.684Z,14.90
2022-11-06T14:55:07.021Z,14.90
2022-11-06T14:57:38.872Z,14.80
2022-11-06T15:00:06.296Z,14.80
2022-11-06T15:02:36.720Z,14.80
2022-11-06T15:05:11.870Z,14.70
2022-11-06T15:08:04.436Z,14.70
2022-11-06T15:10:42.482Z,14.60
2022-11-06T15:13:17.901Z,14.50
2022-11-06T15:16:09.667Z,14.50
2022-11-06T15:18:37.918Z,14.50
2022-11-06T15:21:09.886Z,14.40
2022-11-06T15:23:54.442Z,14.30
2022-11-06T15:26:32.739Z,14.30
2022-11-06T15:29:17.162Z,14.30
2022-11-06T15:31:53.940Z,14.20
2022-11-06T15:34:33.913Z,14.20
2022-11-06T15:37:17.770Z,14.10
2022-11-06T15:40:00.634Z,14.10
2022-11-06T15:42:34.958Z,14.10
2022-11-06T15:45:24.256Z,14.00
2022-11-06T15:47:57.094Z,14.00
2022-11-06T15:50:32.982Z,13.90
2022-11-06T15:53:11.723Z,13.90
2022-11-06T15:56:01.450Z,13.90
2022-11-06T15:58:33.334Z,13.90
2022-11-06T16:01:03.241Z,13.80
2022-11-06T16:03:55.106Z,13.80
2022-11-06T16:06:21.473Z,13.80
2022-11-06T16:08:50.409Z,13.70
2022-11-06T16:11:20.709Z,13.70
2022-11-06T16:13:49.705Z,13.70
2022-11-06T16:16:41.225Z,13.60
2022-11-06T16:19:33.921Z,13.60
2022-11-06T16:22:08.365Z,13.60
2022-11-06T16:24:46.780Z,13.60
2022-11-06T16:27:14.696Z,13.60
2022-11-06T16:29:48.427Z,13.50
2022-11-06T16:32:22.998Z,13.50
2022-11-06T16:34:50.969Z,13.50
2022-11-06T16:37:17.021Z,13.50
2022-11-06T16:39:52.206Z,13.50
2022-11-06T16:42:35.177Z,13.40
2022-11-06T16:45:21.317Z,13.40
2022-11-06T16:48:05.837Z,13.40
2022-11-06T16:51:06.785Z,13.30
2022-11-06T16:53:55.125Z,13.30
2022-11-06T16:56:31.766Z,13.30
2022-11-06T16:59:08.372Z,13.20
2022-11-06T17:01:45.781Z,13.20
2022-11-06T17:04:25.567Z,13.20
2022-11-06T17:06:53.313Z,13.20
2022-11-06T17:09:22.377Z,13.10
2022-11-06T17:11:58.143Z,13.10
2022-11-06T17:14:24.982Z,13.10
2022-11-06T17:16:56.930Z,13.00
2022-11-06T17:19:25.085Z,13.00
2022-11-06T17:21:52.194Z,13.00
2022-11-06T17:24:38.911Z,12.90
2022-11-06T17:27:06.103Z,12.90
2022-11-06T17:29:35.261Z,12.90
2022-11-06T17:32:02.148Z,12.80
2022-11-06T17:34:28.314Z,12.80
2022-11-06T17:36:54.474Z,12.80
2022-11-06T17:39:21.738Z,12.70
2022-11-06T17:41:47.969Z,12.70
2022-11-06T17:44:14.745Z,12.70
2022-11-06T17:46:44.680Z,12.70
2022-11-06T17:49:17.674Z,12.70
2022-11-06T17:51:52.682Z,12.60
2022-11-06T17:54:22.605Z,12.60
2022-11-06T17:56:56.190Z,12.60
2022-11-06T17:59:42.129Z,12.50
2022-11-06T18:02:25.456Z,12.50
2022-11-06T18:05:02.868Z,12.50
2022-11-06T18:07:29.282Z,12.50
2022-11-06T18:09:55.463Z,12.40
2022-11-06T18:12:24.589Z,12.40
2022-11-06T18:14:51.199Z,12.40
2022-11-06T18:17:17.430Z,12.40
2022-11-06T18:19:43.601Z,12.40
2022-11-06T18:22:09.869Z,12.30
2022-11-06T18:24:37.311Z,12.30
2022-11-06T18:27:03.710Z,12.30
2022-11-06T18:29:29.872Z,12.30
2022-11-06T18:31:56.064Z,12.30
2022-11-06T18:34:22.235Z,12.30
2022-11-06T18:36:50.613Z,12.30
2022-11-06T18:39:17.608Z,12.30
2022-11-06T18:41:43.909Z,12.30
2022-11-06T18:44:10.078Z,12.30
2022-11-06T18:46:36.406Z,12.30
2022-11-06T18:49:02.675Z,12.30
2022-11-06T18:51:35.621Z,12.30
2022-11-06T18:54:06.341Z,12.30
2022-11-06T18:56:35.228Z,12.30
2022-11-06T18:59:01.575Z,12.20
2022-11-06T19:01:28.900Z,12.30
2022-11-06T19:03:55.535Z,12.20
2022-11-06T19:06:21.769Z,12.20
2022-11-06T19:08:48.388Z,12.20
2022-11-06T19:11:17.182Z,12.20
2022-11-06T19:13:48.030Z,12.20
2022-11-06T19:16:18.407Z,12.20
2022-11-06T19:18:44.569Z,12.20
2022-11-06T19:21:11.574Z,12.30
2022-11-06T19:23:41.820Z,12.30
2022-11-06T19:26:30.654Z,12.30
2022-11-06T19:28:59.070Z,12.30
2022-11-06T19:31:28.019Z,12.30
2022-11-06T19:33:56.101Z,12.30
2022-11-06T19:36:24.156Z,12.30
2022-11-06T19:38:50.406Z,12.30
2022-11-06T19:41:16.573Z,12.30
2022-11-06T19:43:42.986Z,12.30
2022-11-06T19:46:09.159Z,12.30
2022-11-06T19:48:35.788Z,12.40
2022-11-06T19:51:03.041Z,12.30
2022-11-06T19:53:29.447Z,12.40
2022-11-06T19:55:56.044Z,12.40
2022-11-06T19:58:22.849Z,12.40
2022-11-06T20:00:49.298Z,12.40
2022-11-06T20:03:16.649Z,12.40
2022-11-06T20:05:43.750Z,12.40
2022-11-06T20:08:10.686Z,12.40
2022-11-06T20:10:36.975Z,12.40
2022-11-06T20:13:04.250Z,12.40
2022-11-06T20:15:31.211Z,12.40
2022-11-06T20:17:57.424Z,12.40
2022-11-06T20:20:24.188Z,12.40
2022-11-06T20:22:50.508Z,12.40
2022-11-06T20:25:17.166Z,12.40
2022-11-06T20:27:43.488Z,12.40
2022-11-06T20:30:10.544Z,12.40
2022-11-06T20:32:36.759Z,12.50
2022-11-06T20:35:04.978Z,12.50
2022-11-06T20:37:32.214Z,12.50
2022-11-06T20:39:58.424Z,12.50
2022-11-06T20:42:24.531Z,12.50
2022-11-06T20:44:50.709Z,12.50
2022-11-06T20:47:16.847Z,12.50
2022-11-06T20:49:43.007Z,12.50
2022-11-06T20:52:14.135Z,12.50
2022-11-06T20:54:46.315Z,12.50
2022-11-06T20:57:17.044Z,12.50
2022-11-06T20:59:43.191Z,12.50
2022-11-06T21:02:11.151Z,12.60
2022-11-06T21:04:37.675Z,12.60
2022-11-06T21:07:03.814Z,12.60
2022-11-06T21:09:29.944Z,12.60
2022-11-06T21:11:56.089Z,12.60
2022-11-06T21:14:22.345Z,12.60
2022-11-06T21:16:48.484Z,12.60
2022-11-06T21:19:14.610Z,12.60
2022-11-06T21:21:40.838Z,12.70
2022-11-06T21:24:07.641Z,12.70
2022-11-06T21:26:36.718Z,12.70
2022-11-06T21:29:06.797Z,12.70
2022-11-06T21:31:33.489Z,12.70
2022-11-06T21:34:02.774Z,12.70
2022-11-06T21:36:36.035Z,12.70
2022-11-06T21:39:10.863Z,12.70
2022-11-06T21:41:37.789Z,12.70
2022-11-06T21:44:06.714Z,12.70
2022-11-06T21:46:33.372Z,12.70
2022-11-06T21:48:59.977Z,12.70
2022-11-06T21:51:29.664Z,12.70
2022-11-06T21:54:15.245Z,12.70
2022-11-06T21:56:42.604Z,12.70
2022-11-06T21:59:12.255Z,12.70
2022-11-06T22:01:39.621Z,12.70
2022-11-06T22:04:07.520Z,12.70
2022-11-06T22:06:33.959Z,12.70
2022-11-06T22:09:02.293Z,12.80
2022-11-06T22:11:42.458Z,12.70
2022-11-06T22:14:15.982Z,12.70
2022-11-06T22:16:45.632Z,12.70
2022-11-06T22:19:14.147Z,12.80
2022-11-06T22:21:41.366Z,12.70
2022-11-06T22:24:10.647Z,12.80
2022-11-06T22:26:37.025Z,12.80
2022-11-06T22:29:13.907Z,12.80
2022-11-06T22:31:40.798Z,12.80
2022-11-06T22:34:11.146Z,12.80
2022-11-06T22:36:37.978Z,12.80
2022-11-06T22:39:09.866Z,12.80
2022-11-06T22:41:37.996Z,12.80
2022-11-06T22:44:04.993Z,12.80
2022-11-06T22:46:31.804Z,12.80
2022-11-06T22:48:58.249Z,12.80
2022-11-06T22:51:28.153Z,12.80
2022-11-06T22:53:54.851Z,12.80
2022-11-06T22:56:24.292Z,12.80
2022-11-06T22:59:02.957Z,12.80
2022-11-06T23:01:31.991Z,12.80
2022-11-06T23:04:01.975Z,12.80
2022-11-06T23:06:28.870Z,12.90
2022-11-06T23:08:55.087Z,12.80
2022-11-06T23:11:23.915Z,12.90
2022-11-06T23:13:50.345Z,12.90
2022-11-06T23:16:42.464Z,12.90
2022-11-06T23:19:12.436Z,12.90
2022-11-06T23:21:39.709Z,12.90
2022-11-06T23:24:06.761Z,12.90
2022-11-06T23:26:33.663Z,12.90
2022-11-06T23:29:00.153Z,12.90
2022-11-06T23:31:26.281Z,12.90
2022-11-06T23:33:52.411Z,12.90
2022-11-06T23:36:18.922Z,12.90
2022-11-06T23:38:45.181Z,13.00
2022-11-06T23:41:34.104Z,13.00
2022-11-06T23:44:01.920Z,13.00
2022-11-06T23:46:31.714Z,13.00
2022-11-06T23:48:58.494Z,13.00
2022-11-06T23:51:26.304Z,13.00
2022-11-06T23:53:53.086Z,13.00
2022-11-06T23:56:19.501Z,13.10
2022-11-06T23:58:45.649Z,13.10
